sensor_id;sensor_type;location;lat;lon;timestamp;temperature;humidity
4615;DHT22;2320;51.362;6.946;2023-02-28T00:00:12;-0.60;99.90
4615;DHT22;2320;51.362;6.946;2023-02-28T00:02:39;-0.60;99.90
4615;DHT22;2320;51.362;6.946;2023-02-28T00:05:04;-0.40;99.90
4615;DHT22;2320;51.362;6.946;2023-02-28T00:07:30;-0.10;99.90
4615;DHT22;2320;51.362;6.946;2023-02-28T00:09:56;-0.20;99.90
4615;DHT22;2320;51.362;6.946;2023-02-28T00:12:21;-0.40;99.90
4615;DHT22;2320;51.362;6.946;2023-02-28T00:14:47;-0.30;99.90
4615;DHT22;2320;51.362;6.946;2023-02-28T00:17:12;-0.20;99.90
4615;DHT22;2320;51.362;6.946;2023-02-28T00:19:38;-0.40;99.90
4615;DHT22;2320;51.362;6.946;2023-02-28T00:22:03;-0.20;99.90
4615;DHT22;2320;51.362;6.946;2023-02-28T00:24:28;-0.20;99.90
4615;DHT22;2320;51.362;6.946;2023-02-28T00:26:54;-0.20;99.90
4615;DHT22;2320;51.362;6.946;2023-02-28T00:29:19;-0.40;99.90
4615;DHT22;2320;51.362;6.946;2023-02-28T00:31:45;-0.30;99.90
4615;DHT22;2320;51.362;6.946;2023-02-28T00:34:10;-0.50;99.90
4615;DHT22;2320;51.362;6.946;2023-02-28T00:36:36;-0.60;99.90
4615;DHT22;2320;51.362;6.946;2023-02-28T00:39:01;-0.60;99.90
4615;DHT22;2320;51.362;6.946;2023-02-28T00:41:26;-0.50;99.90
4615;DHT22;2320;51.362;6.946;2023-02-28T00:43:52;-0.40;99.90
4615;DHT22;2320;51.362;6.946;2023-02-28T00:46:17;-0.40;99.90
4615;DHT22;2320;51.362;6.946;2023-02-28T00:48:43;-0.70;99.90
4615;DHT22;2320;51.362;6.946;2023-02-28T00:51:08;-0.80;99.90
4615;DHT22;2320;51.362;6.946;2023-02-28T00:53:34;-0.80;99.90
4615;DHT22;2320;51.362;6.946;2023-02-28T00:55:59;-0.80;99.90
4615;DHT22;2320;51.362;6.946;2023-02-28T00:58:25;-0.60;99.90
4615;DHT22;2320;51.362;6.946;2023-02-28T01:00:51;-0.80;99.90
4615;DHT22;2320;51.362;6.946;2023-02-28T01:03:18;-0.80;99.90
4615;DHT22;2320;51.362;6.946;2023-02-28T01:05:44;-0.80;99.90
4615;DHT22;2320;51.362;6.946;2023-02-28T01:08:10;-0.70;99.90
4615;DHT22;2320;51.362;6.946;2023-02-28T01:10:35;-0.70;99.90
4615;DHT22;2320;51.362;6.946;2023-02-28T01:13:02;-0.80;99.90
4615;DHT22;2320;51.362;6.946;2023-02-28T01:15:27;-0.90;99.90
4615;DHT22;2320;51.362;6.946;2023-02-28T01:17:53;-0.70;99.90
4615;DHT22;2320;51.362;6.946;2023-02-28T01:20:18;-0.80;99.90
4615;DHT22;2320;51.362;6.946;2023-02-28T01:22:44;-0.90;99.90
4615;DHT22;2320;51.362;6.946;2023-02-28T01:25:09;-0.90;99.90
4615;DHT22;2320;51.362;6.946;2023-02-28T01:27:35;-0.90;99.90
4615;DHT22;2320;51.362;6.946;2023-02-28T01:30:01;-0.90;99.90
4615;DHT22;2320;51.362;6.946;2023-02-28T01:32:26;-0.80;99.90
4615;DHT22;2320;51.362;6.946;2023-02-28T01:34:52;-1.00;99.90
4615;DHT22;2320;51.362;6.946;2023-02-28T01:37:17;-1.10;99.90
4615;DHT22;2320;51.362;6.946;2023-02-28T01:39:43;-0.90;99.90
4615;DHT22;2320;51.362;6.946;2023-02-28T01:42:09;-1.10;99.90
4615;DHT22;2320;51.362;6.946;2023-02-28T01:47:19;-1.00;99.90
4615;DHT22;2320;51.362;6.946;2023-02-28T01:49:44;-0.90;99.90
4615;DHT22;2320;51.362;6.946;2023-02-28T01:52:10;-0.70;99.90
4615;DHT22;2320;51.362;6.946;2023-02-28T01:54:43;-0.70;99.90
4615;DHT22;2320;51.362;6.946;2023-02-28T01:57:12;-0.70;99.90
4615;DHT22;2320;51.362;6.946;2023-02-28T01:59:59;-0.50;99.90
4615;DHT22;2320;51.362;6.946;2023-02-28T02:02:26;-0.70;99.90
4615;DHT22;2320;51.362;6.946;2023-02-28T02:05:26;-0.80;99.90
4615;DHT22;2320;51.362;6.946;2023-02-28T02:07:44;-0.80;99.90
4615;DHT22;2320;51.362;6.946;2023-02-28T02:10:13;-0.80;99.90
4615;DHT22;2320;51.362;6.946;2023-02-28T02:15:17;-1.00;99.90
4615;DHT22;2320;51.362;6.946;2023-02-28T02:17:46;-1.20;99.90
4615;DHT22;2320;51.362;6.946;2023-02-28T02:28:05;-1.30;99.90
4615;DHT22;2320;51.362;6.946;2023-02-28T02:30:41;-1.40;99.90
4615;DHT22;2320;51.362;6.946;2023-02-28T02:33:12;-1.50;99.90
4615;DHT22;2320;51.362;6.946;2023-02-28T02:35:43;-1.30;99.90
4615;DHT22;2320;51.362;6.946;2023-02-28T02:43:26;-1.40;99.90
4615;DHT22;2320;51.362;6.946;2023-02-28T02:45:55;-1.50;99.90
4615;DHT22;2320;51.362;6.946;2023-02-28T02:48:24;-1.30;99.90
4615;DHT22;2320;51.362;6.946;2023-02-28T02:50:51;-1.30;99.90
4615;DHT22;2320;51.362;6.946;2023-02-28T02:53:18;-1.10;99.90
4615;DHT22;2320;51.362;6.946;2023-02-28T02:55:46;-1.30;99.90
4615;DHT22;2320;51.362;6.946;2023-02-28T02:58:15;-1.60;99.90
4615;DHT22;2320;51.362;6.946;2023-02-28T03:00:42;-1.50;99.90
4615;DHT22;2320;51.362;6.946;2023-02-28T03:03:11;-1.40;99.90
4615;DHT22;2320;51.362;6.946;2023-02-28T03:05:50;-1.50;99.90
4615;DHT22;2320;51.362;6.946;2023-02-28T03:08:16;-1.50;99.90
4615;DHT22;2320;51.362;6.946;2023-02-28T03:10:42;-1.50;99.90
4615;DHT22;2320;51.362;6.946;2023-02-28T03:16:03;-1.70;99.90
4615;DHT22;2320;51.362;6.946;2023-02-28T03:23:48;-1.60;99.90
4615;DHT22;2320;51.362;6.946;2023-02-28T03:26:19;-1.80;99.90
4615;DHT22;2320;51.362;6.946;2023-02-28T03:28:49;-1.70;99.90
4615;DHT22;2320;51.362;6.946;2023-02-28T03:31:17;-1.80;99.90
4615;DHT22;2320;51.362;6.946;2023-02-28T03:33:50;-1.60;99.90
4615;DHT22;2320;51.362;6.946;2023-02-28T03:36:21;-1.90;99.90
4615;DHT22;2320;51.362;6.946;2023-02-28T03:38:52;-2.00;99.90
4615;DHT22;2320;51.362;6.946;2023-02-28T03:41:21;-2.10;99.90
4615;DHT22;2320;51.362;6.946;2023-02-28T03:43:54;-2.20;99.90
4615;DHT22;2320;51.362;6.946;2023-02-28T03:46:21;-2.20;99.90
4615;DHT22;2320;51.362;6.946;2023-02-28T03:49:03;-1.90;99.90
4615;DHT22;2320;51.362;6.946;2023-02-28T03:51:31;-1.90;99.90
4615;DHT22;2320;51.362;6.946;2023-02-28T03:53:58;-2.00;99.90
4615;DHT22;2320;51.362;6.946;2023-02-28T03:56:32;-1.90;99.90
4615;DHT22;2320;51.362;6.946;2023-02-28T04:03:49;-2.00;99.90
4615;DHT22;2320;51.362;6.946;2023-02-28T04:06:16;-2.10;99.90
4615;DHT22;2320;51.362;6.946;2023-02-28T04:08:43;-1.90;99.90
4615;DHT22;2320;51.362;6.946;2023-02-28T04:11:20;-2.00;99.90
4615;DHT22;2320;51.362;6.946;2023-02-28T04:13:46;-2.10;99.90
4615;DHT22;2320;51.362;6.946;2023-02-28T04:16:11;-1.90;99.90
4615;DHT22;2320;51.362;6.946;2023-02-28T04:18:40;-1.90;99.90
4615;DHT22;2320;51.362;6.946;2023-02-28T04:21:08;-2.10;99.90
4615;DHT22;2320;51.362;6.946;2023-02-28T04:23:33;-2.20;99.90
4615;DHT22;2320;51.362;6.946;2023-02-28T04:25:59;-2.40;99.90
4615;DHT22;2320;51.362;6.946;2023-02-28T04:28:24;-2.50;99.90
4615;DHT22;2320;51.362;6.946;2023-02-28T04:31:02;-2.50;99.90
4615;DHT22;2320;51.362;6.946;2023-02-28T04:33:28;-2.60;99.90
4615;DHT22;2320;51.362;6.946;2023-02-28T04:36:06;-2.70;99.90
4615;DHT22;2320;51.362;6.946;2023-02-28T04:38:34;-2.70;99.90
4615;DHT22;2320;51.362;6.946;2023-02-28T04:40:59;-2.50;99.90
4615;DHT22;2320;51.362;6.946;2023-02-28T04:43:26;-2.40;99.90
4615;DHT22;2320;51.362;6.946;2023-02-28T04:45:51;-2.40;99.90
4615;DHT22;2320;51.362;6.946;2023-02-28T04:48:17;-2.40;99.90
4615;DHT22;2320;51.362;6.946;2023-02-28T04:50:42;-2.30;99.90
4615;DHT22;2320;51.362;6.946;2023-02-28T04:53:08;-2.30;99.90
4615;DHT22;2320;51.362;6.946;2023-02-28T04:55:33;-2.50;99.90
4615;DHT22;2320;51.362;6.946;2023-02-28T04:57:58;-2.70;99.90
4615;DHT22;2320;51.362;6.946;2023-02-28T05:00:24;-2.50;99.90
4615;DHT22;2320;51.362;6.946;2023-02-28T05:02:50;-2.40;99.90
4615;DHT22;2320;51.362;6.946;2023-02-28T05:05:15;-2.30;99.90
4615;DHT22;2320;51.362;6.946;2023-02-28T05:07:43;-2.30;99.90
4615;DHT22;2320;51.362;6.946;2023-02-28T05:10:09;-2.30;99.90
4615;DHT22;2320;51.362;6.946;2023-02-28T05:12:34;-2.20;99.90
4615;DHT22;2320;51.362;6.946;2023-02-28T05:15:00;-2.20;99.90
4615;DHT22;2320;51.362;6.946;2023-02-28T05:17:27;-2.20;99.90
4615;DHT22;2320;51.362;6.946;2023-02-28T05:19:52;-2.30;99.90
4615;DHT22;2320;51.362;6.946;2023-02-28T05:22:18;-2.20;99.90
4615;DHT22;2320;51.362;6.946;2023-02-28T05:24:43;-2.10;99.90
4615;DHT22;2320;51.362;6.946;2023-02-28T05:27:09;-2.10;99.90
4615;DHT22;2320;51.362;6.946;2023-02-28T05:29:35;-2.00;99.90
4615;DHT22;2320;51.362;6.946;2023-02-28T05:32:09;-1.90;99.90
4615;DHT22;2320;51.362;6.946;2023-02-28T05:34:36;-2.00;99.90
4615;DHT22;2320;51.362;6.946;2023-02-28T05:37:01;-2.10;99.90
4615;DHT22;2320;51.362;6.946;2023-02-28T05:39:27;-2.20;99.90
4615;DHT22;2320;51.362;6.946;2023-02-28T05:41:52;-2.60;99.90
4615;DHT22;2320;51.362;6.946;2023-02-28T05:44:18;-2.50;99.90
4615;DHT22;2320;51.362;6.946;2023-02-28T05:46:43;-2.60;99.90
4615;DHT22;2320;51.362;6.946;2023-02-28T05:49:09;-2.70;99.90
4615;DHT22;2320;51.362;6.946;2023-02-28T05:51:34;-2.70;99.90
4615;DHT22;2320;51.362;6.946;2023-02-28T05:54:01;-2.40;99.90
4615;DHT22;2320;51.362;6.946;2023-02-28T05:56:27;-2.40;99.90
4615;DHT22;2320;51.362;6.946;2023-02-28T05:58:52;-2.60;99.90
4615;DHT22;2320;51.362;6.946;2023-02-28T06:03:46;-2.60;99.90
4615;DHT22;2320;51.362;6.946;2023-02-28T06:06:11;-2.70;99.90
4615;DHT22;2320;51.362;6.946;2023-02-28T06:08:37;-2.70;99.90
4615;DHT22;2320;51.362;6.946;2023-02-28T06:11:03;-2.70;99.90
4615;DHT22;2320;51.362;6.946;2023-02-28T06:13:28;-2.70;99.90
4615;DHT22;2320;51.362;6.946;2023-02-28T06:15:54;-2.80;99.90
4615;DHT22;2320;51.362;6.946;2023-02-28T06:18:19;-2.80;99.90
4615;DHT22;2320;51.362;6.946;2023-02-28T06:20:51;-2.80;99.90
4615;DHT22;2320;51.362;6.946;2023-02-28T06:23:18;-2.70;99.90
4615;DHT22;2320;51.362;6.946;2023-02-28T06:25:46;-2.90;99.90
4615;DHT22;2320;51.362;6.946;2023-02-28T06:28:12;-3.00;99.90
4615;DHT22;2320;51.362;6.946;2023-02-28T06:30:38;-2.90;99.90
4615;DHT22;2320;51.362;6.946;2023-02-28T06:33:03;-2.80;99.90
4615;DHT22;2320;51.362;6.946;2023-02-28T06:35:29;-2.80;99.90
4615;DHT22;2320;51.362;6.946;2023-02-28T06:37:54;-2.80;99.90
4615;DHT22;2320;51.362;6.946;2023-02-28T06:40:20;-2.70;99.90
4615;DHT22;2320;51.362;6.946;2023-02-28T06:42:45;-2.70;99.90
4615;DHT22;2320;51.362;6.946;2023-02-28T06:45:11;-2.40;99.90
4615;DHT22;2320;51.362;6.946;2023-02-28T06:47:37;-2.40;99.90
4615;DHT22;2320;51.362;6.946;2023-02-28T06:50:03;-2.10;99.90
4615;DHT22;2320;51.362;6.946;2023-02-28T06:52:29;-1.50;99.90
4615;DHT22;2320;51.362;6.946;2023-02-28T06:54:55;-0.80;99.90
4615;DHT22;2320;51.362;6.946;2023-02-28T06:57:31;0.00;99.90
4615;DHT22;2320;51.362;6.946;2023-02-28T07:00:00;0.70;99.90
4615;DHT22;2320;51.362;6.946;2023-02-28T07:02:26;1.60;99.90
4615;DHT22;2320;51.362;6.946;2023-02-28T07:04:52;2.20;99.90
4615;DHT22;2320;51.362;6.946;2023-02-28T07:07:17;2.70;99.90
4615;DHT22;2320;51.362;6.946;2023-02-28T07:09:43;3.20;99.90
4615;DHT22;2320;51.362;6.946;2023-02-28T07:12:08;3.50;99.90
4615;DHT22;2320;51.362;6.946;2023-02-28T07:14:33;4.20;99.90
4615;DHT22;2320;51.362;6.946;2023-02-28T07:17:01;4.90;99.90
4615;DHT22;2320;51.362;6.946;2023-02-28T07:19:26;5.60;99.90
4615;DHT22;2320;51.362;6.946;2023-02-28T07:21:52;6.00;99.90
4615;DHT22;2320;51.362;6.946;2023-02-28T07:24:17;6.00;99.90
4615;DHT22;2320;51.362;6.946;2023-02-28T07:26:43;5.70;99.90
4615;DHT22;2320;51.362;6.946;2023-02-28T07:29:08;5.10;99.90
4615;DHT22;2320;51.362;6.946;2023-02-28T07:31:34;5.20;99.90
4615;DHT22;2320;51.362;6.946;2023-02-28T07:33:59;5.90;99.90
4615;DHT22;2320;51.362;6.946;2023-02-28T07:36:25;6.50;99.90
4615;DHT22;2320;51.362;6.946;2023-02-28T07:38:50;6.50;99.90
4615;DHT22;2320;51.362;6.946;2023-02-28T07:41:16;7.10;99.90
4615;DHT22;2320;51.362;6.946;2023-02-28T07:43:42;7.50;99.90
4615;DHT22;2320;51.362;6.946;2023-02-28T07:46:08;7.70;99.90
4615;DHT22;2320;51.362;6.946;2023-02-28T07:48:34;8.20;99.90
4615;DHT22;2320;51.362;6.946;2023-02-28T07:51:00;9.20;99.90
4615;DHT22;2320;51.362;6.946;2023-02-28T07:53:26;9.70;99.90
4615;DHT22;2320;51.362;6.946;2023-02-28T07:55:54;10.20;99.90
4615;DHT22;2320;51.362;6.946;2023-02-28T07:58:19;10.30;99.90
4615;DHT22;2320;51.362;6.946;2023-02-28T08:00:45;9.90;99.90
4615;DHT22;2320;51.362;6.946;2023-02-28T08:03:11;10.60;99.90
4615;DHT22;2320;51.362;6.946;2023-02-28T08:05:40;11.40;99.90
4615;DHT22;2320;51.362;6.946;2023-02-28T08:08:06;11.40;99.90
4615;DHT22;2320;51.362;6.946;2023-02-28T08:10:32;10.70;99.90
4615;DHT22;2320;51.362;6.946;2023-02-28T08:12:59;11.30;99.90
4615;DHT22;2320;51.362;6.946;2023-02-28T08:15:25;11.40;99.90
4615;DHT22;2320;51.362;6.946;2023-02-28T08:17:50;12.10;99.90
4615;DHT22;2320;51.362;6.946;2023-02-28T08:20:16;12.10;99.30
4615;DHT22;2320;51.362;6.946;2023-02-28T08:22:41;11.60;98.90
4615;DHT22;2320;51.362;6.946;2023-02-28T08:25:07;11.90;98.20
4615;DHT22;2320;51.362;6.946;2023-02-28T08:27:33;12.30;95.90
4615;DHT22;2320;51.362;6.946;2023-02-28T08:29:58;12.30;96.70
4615;DHT22;2320;51.362;6.946;2023-02-28T08:32:23;12.50;95.90
4615;DHT22;2320;51.362;6.946;2023-02-28T08:34:49;12.40;93.40
4615;DHT22;2320;51.362;6.946;2023-02-28T08:37:14;12.30;92.60
4615;DHT22;2320;51.362;6.946;2023-02-28T08:39:40;12.40;92.20
4615;DHT22;2320;51.362;6.946;2023-02-28T08:42:05;11.90;91.40
4615;DHT22;2320;51.362;6.946;2023-02-28T08:44:31;11.90;91.50
4615;DHT22;2320;51.362;6.946;2023-02-28T08:46:56;12.50;92.30
4615;DHT22;2320;51.362;6.946;2023-02-28T08:49:22;12.70;89.30
4615;DHT22;2320;51.362;6.946;2023-02-28T08:51:47;12.60;87.90
4615;DHT22;2320;51.362;6.946;2023-02-28T08:54:13;12.20;87.30
4615;DHT22;2320;51.362;6.946;2023-02-28T08:56:41;12.50;87.20
4615;DHT22;2320;51.362;6.946;2023-02-28T08:59:08;12.30;86.90
4615;DHT22;2320;51.362;6.946;2023-02-28T09:01:33;12.00;85.20
4615;DHT22;2320;51.362;6.946;2023-02-28T09:03:59;11.90;83.60
4615;DHT22;2320;51.362;6.946;2023-02-28T09:06:26;11.80;85.80
4615;DHT22;2320;51.362;6.946;2023-02-28T09:08:57;12.20;84.10
4615;DHT22;2320;51.362;6.946;2023-02-28T09:11:23;12.10;81.20
4615;DHT22;2320;51.362;6.946;2023-02-28T09:13:49;12.50;81.60
4615;DHT22;2320;51.362;6.946;2023-02-28T09:16:15;12.60;80.00
4615;DHT22;2320;51.362;6.946;2023-02-28T09:18:41;12.50;80.40
4615;DHT22;2320;51.362;6.946;2023-02-28T09:21:07;12.90;77.40
4615;DHT22;2320;51.362;6.946;2023-02-28T09:23:34;13.20;76.70
4615;DHT22;2320;51.362;6.946;2023-02-28T09:25:59;12.50;76.70
4615;DHT22;2320;51.362;6.946;2023-02-28T09:28:25;13.10;76.20
4615;DHT22;2320;51.362;6.946;2023-02-28T09:30:53;13.20;73.40
4615;DHT22;2320;51.362;6.946;2023-02-28T09:33:19;13.80;74.30
4615;DHT22;2320;51.362;6.946;2023-02-28T09:35:48;12.50;72.30
4615;DHT22;2320;51.362;6.946;2023-02-28T09:38:14;11.50;73.60
4615;DHT22;2320;51.362;6.946;2023-02-28T09:40:45;10.40;74.70
4615;DHT22;2320;51.362;6.946;2023-02-28T09:43:12;9.80;80.00
4615;DHT22;2320;51.362;6.946;2023-02-28T09:45:39;10.80;78.40
4615;DHT22;2320;51.362;6.946;2023-02-28T09:48:13;11.40;75.60
4615;DHT22;2320;51.362;6.946;2023-02-28T09:50:48;11.10;72.30
4615;DHT22;2320;51.362;6.946;2023-02-28T09:53:34;10.70;73.20
4615;DHT22;2320;51.362;6.946;2023-02-28T09:56:12;10.30;73.00
4615;DHT22;2320;51.362;6.946;2023-02-28T10:01:09;8.70;77.70
4615;DHT22;2320;51.362;6.946;2023-02-28T10:03:38;8.10;79.40
4615;DHT22;2320;51.362;6.946;2023-02-28T10:08:32;7.30;85.00
4615;DHT22;2320;51.362;6.946;2023-02-28T10:11:00;6.70;87.20
4615;DHT22;2320;51.362;6.946;2023-02-28T10:13:32;6.50;88.50
4615;DHT22;2320;51.362;6.946;2023-02-28T10:16:00;6.40;90.30
4615;DHT22;2320;51.362;6.946;2023-02-28T10:18:28;5.90;90.30
4615;DHT22;2320;51.362;6.946;2023-02-28T10:20:55;5.50;91.40
4615;DHT22;2320;51.362;6.946;2023-02-28T10:23:23;5.50;93.10
4615;DHT22;2320;51.362;6.946;2023-02-28T10:25:53;5.20;92.80
4615;DHT22;2320;51.362;6.946;2023-02-28T10:28:20;4.70;93.80
4615;DHT22;2320;51.362;6.946;2023-02-28T10:30:49;4.60;95.90
4615;DHT22;2320;51.362;6.946;2023-02-28T10:33:17;4.60;96.30
4615;DHT22;2320;51.362;6.946;2023-02-28T10:35:44;4.60;96.20
4615;DHT22;2320;51.362;6.946;2023-02-28T10:38:14;4.70;97.30
4615;DHT22;2320;51.362;6.946;2023-02-28T10:40:41;4.80;97.10
4615;DHT22;2320;51.362;6.946;2023-02-28T10:45:37;4.60;96.90
4615;DHT22;2320;51.362;6.946;2023-02-28T10:50:43;4.50;97.30
4615;DHT22;2320;51.362;6.946;2023-02-28T10:58:22;4.60;98.70
4615;DHT22;2320;51.362;6.946;2023-02-28T11:00:48;4.70;97.50
4615;DHT22;2320;51.362;6.946;2023-02-28T11:03:25;4.50;97.60
4615;DHT22;2320;51.362;6.946;2023-02-28T11:05:50;4.60;98.30
4615;DHT22;2320;51.362;6.946;2023-02-28T11:08:16;4.50;96.90
4615;DHT22;2320;51.362;6.946;2023-02-28T11:10:46;4.30;95.80
4615;DHT22;2320;51.362;6.946;2023-02-28T11:13:19;4.10;95.90
4615;DHT22;2320;51.362;6.946;2023-02-28T11:15:55;4.20;96.80
4615;DHT22;2320;51.362;6.946;2023-02-28T11:18:22;4.60;95.40
4615;DHT22;2320;51.362;6.946;2023-02-28T11:20:49;4.70;94.70
4615;DHT22;2320;51.362;6.946;2023-02-28T11:23:15;4.60;95.60
4615;DHT22;2320;51.362;6.946;2023-02-28T11:25:41;4.50;94.40
4615;DHT22;2320;51.362;6.946;2023-02-28T11:28:31;4.50;94.60
4615;DHT22;2320;51.362;6.946;2023-02-28T11:33:48;4.60;95.60
4615;DHT22;2320;51.362;6.946;2023-02-28T11:36:17;4.90;95.20
4615;DHT22;2320;51.362;6.946;2023-02-28T11:38:43;5.00;94.30
4615;DHT22;2320;51.362;6.946;2023-02-28T11:41:28;4.90;93.70
4615;DHT22;2320;51.362;6.946;2023-02-28T11:46:33;5.00;94.70
4615;DHT22;2320;51.362;6.946;2023-02-28T11:54:27;5.20;93.00
4615;DHT22;2320;51.362;6.946;2023-02-28T11:59:46;5.40;93.10
4615;DHT22;2320;51.362;6.946;2023-02-28T12:02:22;5.30;93.30
4615;DHT22;2320;51.362;6.946;2023-02-28T12:15:26;5.50;93.20
4615;DHT22;2320;51.362;6.946;2023-02-28T12:17:59;5.70;93.10
4615;DHT22;2320;51.362;6.946;2023-02-28T12:20:37;5.60;91.50
4615;DHT22;2320;51.362;6.946;2023-02-28T12:23:10;5.80;92.10
4615;DHT22;2320;51.362;6.946;2023-02-28T12:25:46;6.00;91.70
4615;DHT22;2320;51.362;6.946;2023-02-28T12:28:14;5.80;91.70
4615;DHT22;2320;51.362;6.946;2023-02-28T12:30:43;5.80;92.10
4615;DHT22;2320;51.362;6.946;2023-02-28T12:33:12;5.70;92.10
4615;DHT22;2320;51.362;6.946;2023-02-28T12:35:55;5.50;92.20
4615;DHT22;2320;51.362;6.946;2023-02-28T12:38:23;5.40;92.90
4615;DHT22;2320;51.362;6.946;2023-02-28T12:41:03;5.20;93.90
4615;DHT22;2320;51.362;6.946;2023-02-28T12:43:30;5.10;94.10
4615;DHT22;2320;51.362;6.946;2023-02-28T12:45:59;5.10;94.20
4615;DHT22;2320;51.362;6.946;2023-02-28T12:48:47;5.10;94.40
4615;DHT22;2320;51.362;6.946;2023-02-28T12:51:11;5.00;94.40
4615;DHT22;2320;51.362;6.946;2023-02-28T12:58:31;5.10;95.50
4615;DHT22;2320;51.362;6.946;2023-02-28T13:08:59;5.50;95.00
4615;DHT22;2320;51.362;6.946;2023-02-28T13:11:29;5.40;94.40
4615;DHT22;2320;51.362;6.946;2023-02-28T13:14:00;5.40;95.10
4615;DHT22;2320;51.362;6.946;2023-02-28T13:16:25;5.40;94.90
4615;DHT22;2320;51.362;6.946;2023-02-28T13:18:51;5.50;96.10
4615;DHT22;2320;51.362;6.946;2023-02-28T13:21:24;5.60;94.90
4615;DHT22;2320;51.362;6.946;2023-02-28T13:26:21;5.50;94.80
4615;DHT22;2320;51.362;6.946;2023-02-28T13:31:24;5.40;94.80
4615;DHT22;2320;51.362;6.946;2023-02-28T13:38:51;5.60;95.30
4615;DHT22;2320;51.362;6.946;2023-02-28T13:46:32;5.70;95.20
4615;DHT22;2320;51.362;6.946;2023-02-28T13:51:43;5.80;94.80
4615;DHT22;2320;51.362;6.946;2023-02-28T13:54:24;5.90;95.10
4615;DHT22;2320;51.362;6.946;2023-02-28T13:57:03;6.00;94.90
4615;DHT22;2320;51.362;6.946;2023-02-28T14:00:16;6.10;94.60
4615;DHT22;2320;51.362;6.946;2023-02-28T14:04:49;5.70;95.40
4615;DHT22;2320;51.362;6.946;2023-02-28T14:07:23;5.80;96.90
4615;DHT22;2320;51.362;6.946;2023-02-28T14:09:54;5.80;96.00
4615;DHT22;2320;51.362;6.946;2023-02-28T14:15:17;5.70;95.40
4615;DHT22;2320;51.362;6.946;2023-02-28T14:17:53;5.80;96.90
4615;DHT22;2320;51.362;6.946;2023-02-28T14:20:18;5.90;96.50
4615;DHT22;2320;51.362;6.946;2023-02-28T14:22:51;5.90;96.40
4615;DHT22;2320;51.362;6.946;2023-02-28T14:28:05;6.00;96.00
4615;DHT22;2320;51.362;6.946;2023-02-28T14:38:31;5.80;96.50
4615;DHT22;2320;51.362;6.946;2023-02-28T14:40:57;5.80;99.00
4615;DHT22;2320;51.362;6.946;2023-02-28T14:43:24;5.80;98.50
4615;DHT22;2320;51.362;6.946;2023-02-28T14:45:54;5.90;98.00
4615;DHT22;2320;51.362;6.946;2023-02-28T14:48:20;5.80;98.60
4615;DHT22;2320;51.362;6.946;2023-02-28T14:51:04;5.80;98.90
4615;DHT22;2320;51.362;6.946;2023-02-28T14:53:30;5.90;99.10
4615;DHT22;2320;51.362;6.946;2023-02-28T14:56:00;6.00;99.90
4615;DHT22;2320;51.362;6.946;2023-02-28T14:58:29;5.90;99.90
4615;DHT22;2320;51.362;6.946;2023-02-28T15:00:56;5.80;99.90
4615;DHT22;2320;51.362;6.946;2023-02-28T15:05:52;5.80;99.90
4615;DHT22;2320;51.362;6.946;2023-02-28T15:08:18;5.90;99.80
4615;DHT22;2320;51.362;6.946;2023-02-28T15:10:53;5.90;99.90
4615;DHT22;2320;51.362;6.946;2023-02-28T15:13:19;6.00;99.60
4615;DHT22;2320;51.362;6.946;2023-02-28T15:15:46;6.00;99.90
4615;DHT22;2320;51.362;6.946;2023-02-28T15:20:58;5.90;99.90
4615;DHT22;2320;51.362;6.946;2023-02-28T15:23:25;5.90;99.90
4615;DHT22;2320;51.362;6.946;2023-02-28T15:25:51;5.90;99.90
4615;DHT22;2320;51.362;6.946;2023-02-28T15:28:19;5.80;99.90
4615;DHT22;2320;51.362;6.946;2023-02-28T15:30:59;5.80;99.90
4615;DHT22;2320;51.362;6.946;2023-02-28T15:33:33;5.80;99.90
4615;DHT22;2320;51.362;6.946;2023-02-28T15:38:33;5.70;99.90
4615;DHT22;2320;51.362;6.946;2023-02-28T15:40:58;5.70;99.90
4615;DHT22;2320;51.362;6.946;2023-02-28T15:43:25;5.80;99.90
4615;DHT22;2320;51.362;6.946;2023-02-28T15:51:20;5.60;99.90
4615;DHT22;2320;51.362;6.946;2023-02-28T15:53:48;5.60;99.90
4615;DHT22;2320;51.362;6.946;2023-02-28T15:56:21;5.50;99.90
4615;DHT22;2320;51.362;6.946;2023-02-28T15:58:48;5.60;99.90
4615;DHT22;2320;51.362;6.946;2023-02-28T16:01:21;5.50;99.90
4615;DHT22;2320;51.362;6.946;2023-02-28T16:03:50;5.50;99.90
4615;DHT22;2320;51.362;6.946;2023-02-28T16:06:21;5.60;99.90
4615;DHT22;2320;51.362;6.946;2023-02-28T16:08:49;5.50;99.90
4615;DHT22;2320;51.362;6.946;2023-02-28T16:11:16;5.40;99.90
4615;DHT22;2320;51.362;6.946;2023-02-28T16:13:42;5.30;99.90
4615;DHT22;2320;51.362;6.946;2023-02-28T16:16:07;5.30;99.90
4615;DHT22;2320;51.362;6.946;2023-02-28T16:18:33;5.30;99.90
4615;DHT22;2320;51.362;6.946;2023-02-28T16:20:58;5.20;99.90
4615;DHT22;2320;51.362;6.946;2023-02-28T16:23:24;5.30;99.90
4615;DHT22;2320;51.362;6.946;2023-02-28T16:25:49;5.20;99.90
4615;DHT22;2320;51.362;6.946;2023-02-28T16:28:23;5.20;99.90
4615;DHT22;2320;51.362;6.946;2023-02-28T16:30:52;5.20;99.90
4615;DHT22;2320;51.362;6.946;2023-02-28T16:33:18;5.10;99.90
4615;DHT22;2320;51.362;6.946;2023-02-28T16:35:43;5.10;99.90
4615;DHT22;2320;51.362;6.946;2023-02-28T16:38:09;5.10;99.90
4615;DHT22;2320;51.362;6.946;2023-02-28T16:40:35;5.10;99.90
4615;DHT22;2320;51.362;6.946;2023-02-28T16:43:01;5.00;99.90
4615;DHT22;2320;51.362;6.946;2023-02-28T16:45:29;5.00;99.90
4615;DHT22;2320;51.362;6.946;2023-02-28T16:47:55;5.00;99.90
4615;DHT22;2320;51.362;6.946;2023-02-28T16:50:21;5.10;99.90
4615;DHT22;2320;51.362;6.946;2023-02-28T16:52:47;5.00;99.90
4615;DHT22;2320;51.362;6.946;2023-02-28T16:55:15;5.00;99.90
4615;DHT22;2320;51.362;6.946;2023-02-28T16:57:40;4.90;99.90
4615;DHT22;2320;51.362;6.946;2023-02-28T17:00:07;5.00;99.90
4615;DHT22;2320;51.362;6.946;2023-02-28T17:02:33;4.90;99.90
4615;DHT22;2320;51.362;6.946;2023-02-28T17:04:59;4.70;99.90
4615;DHT22;2320;51.362;6.946;2023-02-28T17:07:24;4.80;99.90
4615;DHT22;2320;51.362;6.946;2023-02-28T17:09:50;4.70;99.90
4615;DHT22;2320;51.362;6.946;2023-02-28T17:12:15;4.60;99.90
4615;DHT22;2320;51.362;6.946;2023-02-28T17:14:41;4.60;99.90
4615;DHT22;2320;51.362;6.946;2023-02-28T17:17:06;4.50;99.90
4615;DHT22;2320;51.362;6.946;2023-02-28T17:19:32;4.50;99.90
4615;DHT22;2320;51.362;6.946;2023-02-28T17:21:59;4.40;99.90
4615;DHT22;2320;51.362;6.946;2023-02-28T17:24:24;4.30;99.90
4615;DHT22;2320;51.362;6.946;2023-02-28T17:26:50;4.30;99.90
4615;DHT22;2320;51.362;6.946;2023-02-28T17:29:16;4.30;99.90
4615;DHT22;2320;51.362;6.946;2023-02-28T17:31:42;4.30;99.90
4615;DHT22;2320;51.362;6.946;2023-02-28T17:34:08;4.20;99.90
4615;DHT22;2320;51.362;6.946;2023-02-28T17:36:33;4.10;99.90
4615;DHT22;2320;51.362;6.946;2023-02-28T17:39:00;4.10;99.90
4615;DHT22;2320;51.362;6.946;2023-02-28T17:41:26;4.20;99.90
4615;DHT22;2320;51.362;6.946;2023-02-28T17:43:51;4.00;99.90
4615;DHT22;2320;51.362;6.946;2023-02-28T17:46:18;4.10;99.90
4615;DHT22;2320;51.362;6.946;2023-02-28T17:48:49;4.10;99.90
4615;DHT22;2320;51.362;6.946;2023-02-28T17:51:14;3.90;99.90
4615;DHT22;2320;51.362;6.946;2023-02-28T17:53:40;3.90;99.90
4615;DHT22;2320;51.362;6.946;2023-02-28T17:56:16;3.80;99.90
4615;DHT22;2320;51.362;6.946;2023-02-28T17:58:43;3.60;99.90
4615;DHT22;2320;51.362;6.946;2023-02-28T18:01:08;3.60;99.90
4615;DHT22;2320;51.362;6.946;2023-02-28T18:03:34;3.80;99.90
4615;DHT22;2320;51.362;6.946;2023-02-28T18:06:00;3.70;99.90
4615;DHT22;2320;51.362;6.946;2023-02-28T18:08:25;3.50;99.90
4615;DHT22;2320;51.362;6.946;2023-02-28T18:10:51;3.40;99.90
4615;DHT22;2320;51.362;6.946;2023-02-28T18:13:16;3.20;99.90
4615;DHT22;2320;51.362;6.946;2023-02-28T18:15:42;3.10;99.90
4615;DHT22;2320;51.362;6.946;2023-02-28T18:18:07;3.10;99.90
4615;DHT22;2320;51.362;6.946;2023-02-28T18:20:33;2.90;99.90
4615;DHT22;2320;51.362;6.946;2023-02-28T18:22:59;2.70;99.90
4615;DHT22;2320;51.362;6.946;2023-02-28T18:25:24;2.60;99.90